Time,TemperatureF,DewpointF,PressureIn,WindDirection,WindDirectionDegrees,WindSpeedMPH,WindSpeedGustMPH,Humidity,HourlyPrecipIn,Conditions,Clouds,dailyrainin,SoftwareType,DateUTC
2013-09-10 00:04:00,58.5,56.0,30.17,SW,229,0.0,0.0,91,0.00,,,0.00,weatherlink.com 1.10,2013-09-10 04:04:00,
2013-09-10 00:19:00,58.6,56.0,30.17,SW,229,0.0,0.0,91,0.00,,,0.00,weatherlink.com 1.10,2013-09-10 04:19:00,
2013-09-10 00:35:00,58.9,56.0,30.16,SW,229,0.0,0.0,90,0.00,,,0.00,weatherlink.com 1.10,2013-09-10 04:35:00,
2013-09-10 00:50:00,59.3,56.0,30.16,SW,229,0.0,0.0,90,0.00,,,0.00,weatherlink.com 1.10,2013-09-10 04:50:00,
2013-09-10 01:05:00,59.6,57.0,30.16,SW,229,0.0,0.0,90,0.00,,,0.00,weatherlink.com 1.10,2013-09-10 05:05:00,
2013-09-10 01:20:00,59.9,57.0,30.17,SW,229,0.0,0.0,90,0.00,,,0.00,weatherlink.com 1.10,2013-09-10 05:20:00,
2013-09-10 01:35:00,60.3,58.0,30.16,SW,229,0.0,0.0,91,0.00,,,0.00,weatherlink.com 1.10,2013-09-10 05:35:00,
2013-09-10 01:50:00,60.6,58.0,30.16,SW,229,0.0,0.0,91,0.00,,,0.00,weatherlink.com 1.10,2013-09-10 05:50:00,
2013-09-10 02:05:00,61.2,59.0,30.16,SSW,204,0.0,2.0,91,0.00,,,0.00,weatherlink.com 1.10,2013-09-10 06:05:00,
2013-09-10 02:20:00,62.1,59.0,30.16,NE,48,0.0,2.0,90,0.00,,,0.00,weatherlink.com 1.10,2013-09-10 06:20:00,
2013-09-10 02:35:00,62.5,60.0,30.16,NW,318,0.0,2.0,90,0.00,,,0.00,weatherlink.com 1.10,2013-09-10 06:35:00,
2013-09-10 02:50:00,62.7,60.0,30.15,NW,318,0.0,1.0,90,0.00,,,0.00,weatherlink.com 1.10,2013-09-10 06:50:00,
2013-09-10 03:05:00,62.6,60.0,30.15,NW,318,0.0,0.0,90,0.00,,,0.00,weatherlink.com 1.10,2013-09-10 07:05:00,
2013-09-10 03:20:00,62.6,60.0,30.14,NW,318,0.0,1.0,91,0.00,,,0.00,weatherlink.com 1.10,2013-09-10 07:20:00,
2013-09-10 03:35:00,62.7,60.0,30.14,NW,318,0.0,2.0,91,0.00,,,0.00,weatherlink.com 1.10,2013-09-10 07:35:00,
2013-09-10 03:50:00,62.7,60.0,30.13,NW,318,0.0,0.0,92,0.00,,,0.00,weatherlink.com 1.10,2013-09-10 07:50:00,
2013-09-10 04:05:00,62.6,60.0,30.14,NW,318,0.0,1.0,92,0.00,,,0.00,weatherlink.com 1.10,2013-09-10 08:05:00,
2013-09-10 04:20:00,62.6,61.0,30.14,NW,318,0.0,1.0,93,0.00,,,0.00,weatherlink.com 1.10,2013-09-10 08:20:00,
2013-09-10 04:35:00,62.8,61.0,30.14,NW,318,0.0,0.0,93,0.00,,,0.00,weatherlink.com 1.10,2013-09-10 08:35:00,
2013-09-10 04:50:00,63.1,61.0,30.14,WSW,246,0.0,3.0,93,0.04,,,0.04,weatherlink.com 1.10,2013-09-10 08:50:00,
2013-09-10 05:05:00,63.0,62.0,30.14,WSW,246,0.0,2.0,95,0.04,,,0.04,weatherlink.com 1.10,2013-09-10 09:05:00,
2013-09-10 05:20:00,63.0,62.0,30.14,WSW,246,0.0,1.0,95,0.04,,,0.04,weatherlink.com 1.10,2013-09-10 09:20:00,
2013-09-10 05:35:00,62.9,62.0,30.14,WSW,246,2.0,2.0,96,0.04,,,0.04,weatherlink.com 1.10,2013-09-10 09:35:00,
2013-09-10 05:50:00,62.9,62.0,30.14,WSW,246,0.0,2.0,96,0.00,,,0.04,weatherlink.com 1.10,2013-09-10 09:50:00,
2013-09-10 06:05:00,62.9,62.0,30.14,SW,229,0.0,1.0,96,0.00,,,0.04,weatherlink.com 1.10,2013-09-10 10:05:00,
2013-09-10 06:20:00,63.0,62.0,30.14,SW,229,0.0,0.0,96,0.01,,,0.05,weatherlink.com 1.10,2013-09-10 10:20:00,
2013-09-10 06:35:00,63.1,62.0,30.14,SW,229,0.0,1.0,97,0.01,,,0.05,weatherlink.com 1.10,2013-09-10 10:35:00,
2013-09-10 06:50:00,63.1,62.0,30.14,SW,229,0.0,2.0,97,0.01,,,0.05,weatherlink.com 1.10,2013-09-10 10:50:00,
2013-09-10 07:05:00,63.4,63.0,30.15,SW,229,0.0,2.0,97,0.01,,,0.05,weatherlink.com 1.10,2013-09-10 11:05:00,
2013-09-10 07:20:00,63.6,63.0,30.15,NNW,345,0.0,4.0,97,0.00,,,0.05,weatherlink.com 1.10,2013-09-10 11:20:00,
2013-09-10 07:35:00,63.9,63.0,30.14,NNE,13,1.0,3.0,97,0.00,,,0.05,weatherlink.com 1.10,2013-09-10 11:35:00,
2013-09-10 07:50:00,64.1,63.0,30.14,WNW,291,0.0,4.0,97,0.00,,,0.05,weatherlink.com 1.10,2013-09-10 11:50:00,
2013-09-10 08:05:00,64.3,64.0,30.13,WNW,291,0.0,2.0,97,0.00,,,0.05,weatherlink.com 1.10,2013-09-10 12:05:00,
2013-09-10 08:20:00,64.5,64.0,30.14,WSW,255,3.0,6.0,97,0.00,,,0.05,weatherlink.com 1.10,2013-09-10 12:20:00,
2013-09-10 08:35:00,64.7,64.0,30.14,NNW,347,1.0,2.0,97,0.00,,,0.05,weatherlink.com 1.10,2013-09-10 12:35:00,
2013-09-10 08:50:00,65.0,64.0,30.14,WNW,296,0.0,2.0,97,0.00,,,0.05,weatherlink.com 1.10,2013-09-10 12:50:00,
2013-09-10 09:05:00,65.2,64.0,30.15,West,277,0.0,2.0,97,0.00,,,0.05,weatherlink.com 1.10,2013-09-10 13:05:00,
2013-09-10 09:20:00,65.5,65.0,30.16,WSW,244,0.0,7.0,97,0.00,,,0.05,weatherlink.com 1.10,2013-09-10 13:20:00,
2013-09-10 09:35:00,65.8,65.0,30.15,NW,315,0.0,1.0,97,0.00,,,0.05,weatherlink.com 1.10,2013-09-10 13:35:00,
2013-09-10 09:50:00,66.2,65.0,30.15,SSW,194,2.0,5.0,97,0.00,,,0.05,weatherlink.com 1.10,2013-09-10 13:50:00,
2013-09-10 10:05:00,66.5,66.0,30.15,SSW,204,1.0,7.0,97,0.00,,,0.05,weatherlink.com 1.10,2013-09-10 14:05:00,
2013-09-10 10:20:00,66.7,66.0,30.16,ESE,107,1.0,6.0,97,0.00,,,0.05,weatherlink.com 1.10,2013-09-10 14:20:00,
2013-09-10 10:35:00,66.8,66.0,30.17,SSW,203,3.0,5.0,97,0.00,,,0.05,weatherlink.com 1.10,2013-09-10 14:35:00,
2013-09-10 10:50:00,66.9,66.0,30.16,SSW,208,0.0,4.0,96,0.00,,,0.05,weatherlink.com 1.10,2013-09-10 14:50:00,
2013-09-10 11:06:00,67.1,66.0,30.19,NNW,340,1.0,4.0,97,0.00,,,0.05,weatherlink.com 1.10,2013-09-10 15:06:00,
2013-09-10 11:21:00,67.1,66.0,30.17,SE,138,0.0,3.0,97,0.02,,,0.07,weatherlink.com 1.10,2013-09-10 15:21:00,
2013-09-10 11:36:00,66.9,66.0,30.16,SSE,167,0.0,2.0,96,0.02,,,0.07,weatherlink.com 1.10,2013-09-10 15:36:00,
2013-09-10 11:51:00,67.2,66.0,30.12,ESE,103,0.0,2.0,97,0.03,,,0.08,weatherlink.com 1.10,2013-09-10 15:51:00,
2013-09-10 12:06:00,67.5,67.0,30.10,NE,45,2.0,6.0,97,0.04,,,0.09,weatherlink.com 1.10,2013-09-10 16:06:00,
2013-09-10 12:21:00,67.9,67.0,30.09,ENE,68,2.0,9.0,97,0.02,,,0.09,weatherlink.com 1.10,2013-09-10 16:21:00,
2013-09-10 12:36:00,68.2,67.0,30.08,ENE,78,1.0,6.0,97,0.01,,,0.09,weatherlink.com 1.10,2013-09-10 16:36:00,
2013-09-10 12:51:00,68.8,68.0,30.06,East,82,0.0,4.0,98,0.01,,,0.09,weatherlink.com 1.10,2013-09-10 16:51:00,
2013-09-10 13:06:00,69.5,69.0,30.05,ENE,67,2.0,6.0,97,0.00,,,0.09,weatherlink.com 1.10,2013-09-10 17:06:00,
2013-09-10 13:21:00,70.4,69.0,30.07,West,271,4.0,9.0,96,0.00,,,0.09,weatherlink.com 1.10,2013-09-10 17:21:00,
2013-09-10 13:36:00,71.1,69.0,30.08,South,190,5.0,9.0,94,0.00,,,0.09,weatherlink.com 1.10,2013-09-10 17:36:00,
2013-09-10 13:51:00,71.5,69.0,30.09,WSW,249,7.0,14.0,93,0.00,,,0.09,weatherlink.com 1.10,2013-09-10 17:51:00,
2013-09-10 14:06:00,72.3,70.0,30.09,SW,227,2.0,9.0,92,0.00,,,0.09,weatherlink.com 1.10,2013-09-10 18:06:00,
2013-09-10 14:21:00,73.2,71.0,30.08,WSW,247,5.0,9.0,91,0.00,,,0.09,weatherlink.com 1.10,2013-09-10 18:21:00,
2013-09-10 14:36:00,74.1,71.0,30.08,South,173,2.0,9.0,89,0.00,,,0.09,weatherlink.com 1.10,2013-09-10 18:36:00,
2013-09-10 14:51:00,75.2,72.0,30.08,WSW,245,1.0,7.0,88,0.00,,,0.09,weatherlink.com 1.10,2013-09-10 18:51:00,
2013-09-10 15:06:00,76.0,72.0,30.07,WSW,237,2.0,8.0,88,0.00,,,0.09,weatherlink.com 1.10,2013-09-10 19:06:00,
2013-09-10 15:21:00,76.5,72.0,30.07,ESE,106,1.0,6.0,86,0.00,,,0.09,weatherlink.com 1.10,2013-09-10 19:21:00,
2013-09-10 15:36:00,77.1,72.0,30.07,SW,227,0.0,4.0,85,0.00,,,0.09,weatherlink.com 1.10,2013-09-10 19:36:00,
2013-09-10 15:51:00,77.4,73.0,30.06,WSW,253,0.0,11.0,85,0.00,,,0.09,weatherlink.com 1.10,2013-09-10 19:51:00,
2013-09-10 16:06:00,78.0,73.0,30.06,WSW,244,2.0,7.0,84,0.00,,,0.09,weatherlink.com 1.10,2013-09-10 20:06:00,
2013-09-10 16:21:00,77.5,72.0,30.06,NE,34,1.0,3.0,84,0.00,,,0.09,weatherlink.com 1.10,2013-09-10 20:21:00,
2013-09-10 16:36:00,76.9,72.0,30.06,WSW,246,0.0,3.0,85,0.00,,,0.09,weatherlink.com 1.10,2013-09-10 20:36:00,
2013-09-10 16:51:00,77.4,73.0,30.06,WNW,296,0.0,5.0,86,0.00,,,0.09,weatherlink.com 1.10,2013-09-10 20:51:00,
2013-09-10 17:07:00,78.4,73.0,30.06,West,272,0.0,6.0,83,0.00,,,0.09,weatherlink.com 1.10,2013-09-10 21:07:00,
2013-09-10 17:21:00,78.5,73.0,30.06,SW,221,0.0,4.0,84,0.00,,,0.09,weatherlink.com 1.10,2013-09-10 21:21:00,
2013-09-10 17:37:00,78.1,74.0,30.05,WSW,252,2.0,3.0,86,0.00,,,0.09,weatherlink.com 1.10,2013-09-10 21:37:00,
2013-09-10 17:52:00,78.2,73.0,30.05,SW,215,0.0,3.0,84,0.00,,,0.09,weatherlink.com 1.10,2013-09-10 21:52:00,
2013-09-10 18:07:00,77.9,74.0,30.06,SW,215,0.0,0.0,87,0.00,,,0.09,weatherlink.com 1.10,2013-09-10 22:07:00,
2013-09-10 18:22:00,77.0,73.0,30.06,SW,215,0.0,0.0,88,0.00,,,0.09,weatherlink.com 1.10,2013-09-10 22:22:00,
2013-09-10 18:37:00,76.2,73.0,30.06,SW,215,0.0,0.0,89,0.00,,,0.09,weatherlink.com 1.10,2013-09-10 22:37:00,
2013-09-10 18:52:00,75.5,73.0,30.06,SW,215,0.0,0.0,91,0.00,,,0.09,weatherlink.com 1.10,2013-09-10 22:52:00,
2013-09-10 19:07:00,74.8,72.0,30.06,SW,215,0.0,0.0,92,0.00,,,0.09,weatherlink.com 1.10,2013-09-10 23:07:00,
2013-09-10 19:22:00,74.2,72.0,30.07,SW,215,0.0,0.0,93,0.00,,,0.09,weatherlink.com 1.10,2013-09-10 23:22:00,
2013-09-10 19:37:00,73.5,72.0,30.07,SW,215,0.0,0.0,94,0.00,,,0.09,weatherlink.com 1.10,2013-09-10 23:37:00,
2013-09-10 19:52:00,73.0,71.0,30.07,SW,215,0.0,0.0,94,0.00,,,0.09,weatherlink.com 1.10,2013-09-10 23:52:00,
2013-09-10 20:07:00,72.8,71.0,30.07,WNW,288,0.0,3.0,95,0.00,,,0.09,weatherlink.com 1.10,2013-09-11 00:07:00,
2013-09-10 20:22:00,72.8,71.0,30.08,WNW,288,0.0,2.0,94,0.00,,,0.09,weatherlink.com 1.10,2013-09-11 00:22:00,
2013-09-10 20:37:00,72.7,71.0,30.08,WNW,288,0.0,1.0,94,0.00,,,0.09,weatherlink.com 1.10,2013-09-11 00:37:00,
2013-09-10 20:52:00,72.7,71.0,30.09,WNW,288,1.0,1.0,94,0.00,,,0.09,weatherlink.com 1.10,2013-09-11 00:52:00,
2013-09-10 21:07:00,72.9,71.0,30.09,East,80,1.0,4.0,94,0.00,,,0.09,weatherlink.com 1.10,2013-09-11 01:07:00,
2013-09-10 21:22:00,72.6,71.0,30.09,East,80,0.0,2.0,94,0.00,,,0.09,weatherlink.com 1.10,2013-09-11 01:22:00,
2013-09-10 21:37:00,72.2,70.0,30.08,East,80,0.0,0.0,94,0.00,,,0.09,weatherlink.com 1.10,2013-09-11 01:37:00,
2013-09-10 21:53:00,71.9,71.0,30.08,NE,47,0.0,4.0,95,0.00,,,0.09,weatherlink.com 1.10,2013-09-11 01:53:00,
2013-09-10 22:07:00,72.5,71.0,30.08,ENE,64,3.0,5.0,95,0.00,,,0.09,weatherlink.com 1.10,2013-09-11 02:07:00,
2013-09-10 22:22:00,73.7,72.0,30.08,West,265,3.0,5.0,94,0.00,,,0.09,weatherlink.com 1.10,2013-09-11 02:22:00,
2013-09-10 22:37:00,75.2,73.0,30.08,WSW,252,2.0,8.0,91,0.00,,,0.09,weatherlink.com 1.10,2013-09-11 02:37:00,
2013-09-10 22:52:00,75.9,73.0,30.08,WSW,245,0.0,9.0,89,0.00,,,0.09,weatherlink.com 1.10,2013-09-11 02:52:00,
2013-09-10 23:07:00,76.2,73.0,30.08,West,271,7.0,9.0,89,0.00,,,0.09,weatherlink.com 1.10,2013-09-11 03:07:00,
2013-09-10 23:22:00,76.5,73.0,30.08,SSW,198,2.0,10.0,88,0.00,,,0.09,weatherlink.com 1.10,2013-09-11 03:22:00,
2013-09-10 23:37:00,76.7,73.0,30.08,WNW,294,5.0,12.0,88,0.00,,,0.09,weatherlink.com 1.10,2013-09-11 03:37:00,
2013-09-10 23:52:00,76.7,73.0,30.08,South,173,2.0,14.0,87,0.00,,,0.09,weatherlink.com 1.10,2013-09-11 03:52:00,